Time;durP1;ratioP1;P1;durP2;ratioP2;P2;SDS_P1;SDS_P2;PMS_P1;PMS_P2;Temp;Humidity;BMP_temperature;BMP_pressure;BME280_temperature;BME280_humidity;BME280_pressure;Samples;Min_cycle;Max_cycle;Signal;HPM_P1;HPM_P2
2022/10/04 07:57:16;;;;;;;;;41.00;35.75;;;;;10.32;84.81;101736.25;5078726;27;45566;-63
2022/10/04 07:59:59;;;;;;;;;45.25;36.25;;;;;10.45;84.97;101742.59;5070092;27;45479;-63
2022/10/04 08:02:57;;;;;;;;;52.25;38.50;;;;;10.60;84.20;101732.38;5072606;27;45579;-62
2022/10/04 08:05:34;;;;;;;;;48.75;37.75;;;;;10.82;83.29;101735.41;5073844;27;45748;-64
2022/10/04 08:08:13;;;;;;;;;50.75;38.50;;;;;10.96;82.50;101733.91;5069717;27;46025;-64
2022/10/04 08:10:41;;;;;;;;;50.75;37.25;;;;;11.06;81.54;101723.53;5074260;27;45512;-64
2022/10/04 08:13:32;;;;;;;;;53.00;40.50;;;;;11.18;80.86;101722.00;5071185;27;45539;-63
2022/10/04 08:16:22;;;;;;;;;48.75;39.25;;;;;11.20;80.25;101701.03;5084601;27;45563;-63
2022/10/04 08:19:03;;;;;;;;;46.00;38.75;;;;;11.35;80.55;101721.38;5084181;27;48220;-63
2022/10/04 08:21:44;;;;;;;;;43.75;34.75;;;;;11.43;79.99;101707.47;5088511;27;45380;-64
2022/10/04 08:24:24;;;;;;;;;49.00;36.00;;;;;11.61;79.63;101711.25;5093457;27;45354;-63
2022/10/04 08:27:03;;;;;;;;;46.75;36.25;;;;;11.71;79.43;101713.13;5098928;27;45558;-62
2022/10/04 08:29:43;;;;;;;;;50.00;37.50;;;;;11.90;78.51;101711.63;5089732;27;46349;-62
2022/10/04 08:32:22;;;;;;;;;53.00;39.50;;;;;11.91;77.80;101721.25;5090203;27;45301;-63
2022/10/04 08:35:41;;;;;;;;;46.00;38.50;;;;;11.93;78.07;101722.16;5088116;27;45436;-62
2022/10/04 08:38:26;;;;;;;;;53.75;37.00;;;;;12.12;77.87;101731.13;5058638;27;45527;-65
2022/10/04 08:41:07;;;;;;;;;49.75;37.75;;;;;12.32;76.69;101736.63;5066611;27;46267;-63
2022/10/04 08:44:11;;;;;;;;;46.25;37.75;;;;;12.43;75.89;101731.47;5080501;27;45553;-62
2022/10/04 08:47:22;;;;;;;;;44.50;36.00;;;;;12.66;75.68;101748.34;5099777;27;45598;-62
2022/10/04 08:50:03;;;;;;;;;52.00;40.25;;;;;12.76;74.66;101754.56;5080013;27;45322;-63
2022/10/04 08:52:49;;;;;;;;;53.00;37.25;;;;;12.76;75.25;101748.44;5088424;27;48236;-62
2022/10/04 08:55:40;;;;;;;;;48.75;39.50;;;;;12.84;74.82;101738.91;5101659;27;45461;-62
2022/10/04 08:58:24;;;;;;;;;54.25;41.25;;;;;13.19;73.52;101751.44;5102788;27;45464;-63
2022/10/04 09:00:55;;;;;;;;;48.75;40.25;;;;;13.32;72.11;101727.88;5096690;27;45525;-63
2022/10/04 09:03:25;;;;;;;;;46.75;36.50;;;;;13.81;71.79;101752.72;5109941;27;45648;-63
2022/10/04 09:05:59;;;;;;;;;45.50;39.00;;;;;14.11;70.88;101750.22;5091655;27;45449;-63
2022/10/04 09:08:53;;;;;;;;;50.50;39.50;;;;;14.29;69.93;101748.53;5100075;27;45566;-63
2022/10/04 09:11:46;;;;;;;;;57.00;44.50;;;;;14.42;68.83;101751.19;5102193;27;45446;-62
2022/10/04 09:14:32;;;;;;;;;43.75;37.25;;;;;14.63;68.97;101758.28;5100806;27;45723;-64
2022/10/04 09:17:19;;;;;;;;;55.75;40.25;;;;;14.83;68.26;101752.19;5075719;27;45768;-64
2022/10/04 09:20:03;;;;;;;;;57.50;39.00;;;;;14.88;66.67;101754.78;5095838;27;45365;-63
2022/10/04 09:22:41;;;;;;;;;56.50;44.75;;;;;14.68;67.12;101752.16;5096903;27;45313;-63
2022/10/04 09:25:31;;;;;;;;;53.50;40.00;;;;;14.78;66.83;101754.81;5099240;27;45952;-63
2022/10/04 09:28:11;;;;;;;;;56.00;44.00;;;;;14.87;67.15;101755.69;5098108;27;45525;-63
2022/10/04 09:31:09;;;;;;;;;51.75;41.50;;;;;14.75;66.94;101738.97;5085017;27;45543;-63
2022/10/04 09:34:23;;;;;;;;;51.25;40.75;;;;;14.88;67.10;101734.59;5077915;27;45597;-63
2022/10/04 09:37:07;;;;;;;;;54.25;40.25;;;;;15.31;66.40;101753.03;5091713;27;45661;-63
2022/10/04 09:40:09;;;;;;;;;58.00;43.25;;;;;15.35;64.67;101752.16;5080736;27;45729;-63
2022/10/04 09:43:13;;;;;;;;;56.25;42.50;;;;;15.22;65.00;101739.84;5077070;27;45369;-62
2022/10/04 09:46:08;;;;;;;;;55.00;43.50;;;;;15.21;64.99;101733.69;5096680;27;45415;-61
2022/10/04 09:48:41;;;;;;;;;57.50;43.25;;;;;15.38;65.42;101714.31;5100019;27;45729;-64
2022/10/04 09:51:28;;;;;;;;;61.25;44.50;;;;;15.53;64.47;101727.47;5098537;27;45323;-63
2022/10/04 09:54:18;;;;;;;;;56.50;43.00;;;;;15.59;63.76;101730.09;5077388;27;45512;-63
2022/10/04 09:56:47;;;;;;;;;56.75;44.00;;;;;15.56;64.62;101726.56;5095768;27;45523;-62
2022/10/04 09:59:24;;;;;;;;;55.00;43.75;;;;;15.74;64.67;101733.59;5095111;27;46306;-62
2022/10/04 10:02:12;;;;;;;;;59.00;44.50;;;;;15.96;64.24;101722.06;5096853;27;45457;-64
2022/10/04 10:05:15;;;;;;;;;44.50;38.50;;;;;16.33;63.20;101725.38;5097428;27;45632;-62
2022/10/04 10:07:57;;;;;;;;;51.00;38.50;;;;;16.70;60.59;101722.50;5105135;27;45398;-64
2022/10/04 10:13:51;;;;;;;;;52.25;38.00;;;;;17.06;61.28;101707.25;5086943;27;45418;-65
2022/10/04 10:16:41;;;;;;;;;50.25;40.25;;;;;17.51;58.08;101718.25;5095523;27;45416;-64
2022/10/04 10:19:13;;;;;;;;;53.00;41.00;;;;;18.74;55.74;101713.06;5069580;27;46837;-63
2022/10/04 10:21:57;;;;;;;;;53.50;39.25;;;;;20.60;50.36;101701.44;5094995;27;45564;-62
2022/10/04 10:24:55;;;;;;;;;45.25;37.75;;;;;22.47;46.29;101695.28;5100252;27;45460;-64
2022/10/04 10:27:37;;;;;;;;;44.25;35.25;;;;;24.08;43.50;101689.56;5076364;27;45507;-63
2022/10/04 10:30:37;;;;;;;;;48.25;38.50;;;;;24.81;40.92;101680.34;5104988;27;45477;-62
2022/10/04 10:33:24;;;;;;;;;54.25;42.25;;;;;24.71;39.56;101662.94;5078886;27;47265;-64
2022/10/04 10:36:18;;;;;;;;;49.33;40.00;;;;;25.02;39.71;101666.97;5045619;27;45536;-63
2022/10/04 10:38:53;;;;;;;;;49.00;39.33;;;;;26.02;37.49;101666.00;5078056;27;45446;-62
2022/10/04 10:41:52;;;;;;;;;47.00;37.33;;;;;26.34;37.07;101659.09;5079593;27;45754;-62
2022/10/04 10:44:32;;;;;;;;;47.67;41.00;;;;;26.32;36.84;101654.72;5055486;28;47665;-64
2022/10/04 10:47:33;;;;;;;;;42.67;36.67;;;;;26.81;36.63;101658.53;5083217;27;45410;-63
2022/10/04 10:50:26;;;;;;;;;44.67;34.00;;;;;28.05;34.67;101661.75;5029841;27;45439;-64
2022/10/04 10:53:07;;;;;;;;;40.33;33.67;;;;;28.60;33.70;101660.38;5075717;27;45396;-63
2022/10/04 10:55:51;;;;;;;;;44.33;36.00;;;;;28.39;33.46;101657.09;5085470;27;45580;-62
2022/10/04 10:58:21;;;;;;;;;40.00;32.00;;;;;28.48;32.93;101650.34;5081795;27;45567;-62
2022/10/04 11:01:05;;;;;;;;;46.00;37.67;;;;;29.20;31.81;101653.22;5084599;27;45827;-63
2022/10/04 11:04:08;;;;;;;;;40.67;34.33;;;;;29.58;31.37;101648.97;5087117;27;45471;-63
2022/10/04 11:07:15;;;;;;;;;43.33;34.67;;;;;30.57;30.32;101648.84;5061164;27;48129;-63
2022/10/04 11:10:13;;;;;;;;;40.33;32.33;;;;;30.54;30.32;101645.47;5075038;27;45329;-63
2022/10/04 11:12:56;;;;;;;;;36.33;31.33;;;;;30.91;29.24;101641.13;5080101;27;45574;-64
2022/10/04 11:15:53;;;;;;;;;37.33;33.00;;;;;31.07;29.68;101640.94;5058729;27;45468;-63
2022/10/04 11:19:01;;;;;;;;;28.67;26.67;;;;;31.54;29.64;101630.44;5090518;27;45385;-65
2022/10/04 11:21:49;;;;;;;;;34.67;30.00;;;;;31.99;29.44;101645.19;5072834;27;45923;-62
2022/10/04 11:24:49;;;;;;;;;31.00;29.33;;;;;32.10;28.56;101638.94;5101635;27;45694;-65
2022/10/04 11:27:42;;;;;;;;;30.00;28.00;;;;;32.28;28.48;101656.53;5084759;27;45868;-62
2022/10/04 11:30:25;;;;;;;;;26.33;25.67;;;;;32.40;27.85;101643.91;5053282;27;45636;-61
2022/10/04 11:33:16;;;;;;;;;24.33;23.00;;;;;32.26;27.44;101644.94;5055038;27;45560;-62
2022/10/04 11:36:19;;;;;;;;;31.33;27.00;;;;;31.77;28.75;101644.97;5090438;27;45368;-64
2022/10/04 11:39:14;;;;;;;;;33.67;30.33;;;;;31.83;28.35;101647.25;5058233;27;45876;-62
2022/10/04 11:41:58;;;;;;;;;32.67;30.00;;;;;31.76;28.77;101644.13;5079984;27;45608;-63
2022/10/04 11:44:42;;;;;;;;;30.00;26.33;;;;;32.45;28.56;101652.53;5081263;27;45455;-63
2022/10/04 11:47:27;;;;;;;;;33.00;26.67;;;;;31.97;27.98;101657.09;5075209;27;45644;-63
2022/10/04 11:50:20;;;;;;;;;25.33;24.33;;;;;31.78;28.69;101650.28;5085833;27;45600;-63
2022/10/04 11:53:07;;;;;;;;;18.25;17.25;;;;;32.51;28.74;101660.25;5055741;27;46088;-63
2022/10/04 11:55:42;;;;;;;;;21.00;18.50;;;;;32.78;29.13;101656.38;5076295;27;45889;-62
2022/10/04 11:58:45;;;;;;;;;24.00;18.50;;;;;32.55;28.10;101652.72;5071732;27;46443;-64
2022/10/04 12:01:21;;;;;;;;;16.00;14.00;;;;;31.57;28.68;101635.63;5084287;27;45416;-63
2022/10/04 12:04:20;;;;;;;;;19.50;16.75;;;;;30.70;30.50;101643.44;5076641;27;46495;-63
2022/10/04 12:06:57;;;;;;;;;16.25;16.25;;;;;30.38;30.90;101640.25;5054580;28;45708;-63
2022/10/04 12:09:52;;;;;;;;;20.75;18.00;;;;;30.18;30.39;101644.25;5072868;27;45437;-63
2022/10/04 12:12:38;;;;;;;;;17.75;16.75;;;;;29.17;31.51;101644.34;5000612;28;45535;-63
2022/10/04 12:15:31;;;;;;;;;13.50;13.50;;;;;28.67;33.16;101650.13;5071118;27;45654;-62
2022/10/04 12:18:16;;;;;;;;;13.00;12.50;;;;;28.90;33.54;101646.00;5062971;27;45563;-62
2022/10/04 12:20:52;;;;;;;;;18.50;16.00;;;;;28.73;33.30;101652.41;5073081;27;45451;-64
2022/10/04 12:23:39;;;;;;;;;15.00;13.75;;;;;28.07;34.23;101651.75;5084719;27;45631;-63
2022/10/04 12:26:07;;;;;;;;;12.50;12.00;;;;;27.91;35.15;101648.19;5093845;27;45523;-63
2022/10/04 12:29:11;;;;;;;;;10.75;10.25;;;;;28.02;35.57;101648.44;5092066;27;45653;-64
2022/10/04 12:32:13;;;;;;;;;18.75;14.75;;;;;27.68;35.06;101646.75;5015169;28;45503;-63
2022/10/04 12:35:07;;;;;;;;;16.00;11.25;;;;;27.45;36.38;101640.81;5081653;27;45461;-61
2022/10/04 12:37:41;;;;;;;;;14.25;11.75;;;;;27.30;36.88;101624.66;5078676;27;46010;-63
2022/10/04 12:40:13;;;;;;;;;13.75;13.00;;;;;27.16;36.90;101630.72;5074997;27;45866;-63
2022/10/04 12:42:45;;;;;;;;;15.75;14.25;;;;;26.88;36.95;101624.13;5089578;27;45471;-63
2022/10/04 12:45:18;;;;;;;;;15.00;14.25;;;;;26.07;37.81;101626.38;5089835;27;45937;-62
2022/10/04 12:48:12;;;;;;;;;14.50;11.50;;;;;25.70;38.59;101621.88;5078120;27;45454;-63
2022/10/04 12:50:55;;;;;;;;;14.75;14.00;;;;;25.49;38.92;101610.38;5091075;27;45714;-62
2022/10/04 12:53:30;;;;;;;;;15.00;13.25;;;;;25.14;39.79;101605.66;5111927;27;45437;-62
2022/10/04 12:56:04;;;;;;;;;11.50;11.00;;;;;24.82;40.23;101591.03;5082824;27;45561;-62
2022/10/04 12:58:50;;;;;;;;;13.50;13.25;;;;;24.61;40.86;101610.72;5078460;27;45462;-62
2022/10/04 13:01:36;;;;;;;;;11.25;10.25;;;;;24.50;41.44;101600.44;5082065;27;45299;-61
2022/10/04 13:04:18;;;;;;;;;15.25;13.00;;;;;24.47;41.83;101609.47;5080945;27;45709;-63
2022/10/04 13:07:09;;;;;;;;;10.33;9.67;;;;;24.52;41.48;101607.47;5088964;27;45780;-62
2022/10/04 13:09:46;;;;;;;;;9.00;9.00;;;;;24.45;41.73;101599.75;5075475;27;47088;-62
2022/10/04 13:12:30;;;;;;;;;15.00;10.25;;;;;24.13;42.21;101583.19;5097839;27;45473;-64
2022/10/04 13:15:21;;;;;;;;;12.25;10.00;;;;;24.00;42.22;101595.34;5078180;27;45494;-63
2022/10/04 13:18:34;;;;;;;;;12.00;11.50;;;;;24.10;42.57;101592.22;5079587;27;45407;-62
2022/10/04 13:21:07;;;;;;;;;8.25;8.00;;;;;24.09;42.95;101593.19;5096271;27;45476;-62
2022/10/04 13:23:32;;;;;;;;;11.00;9.00;;;;;24.07;42.46;101591.50;5094019;27;46015;-63
2022/10/04 13:26:04;;;;;;;;;8.50;8.50;;;;;24.12;42.51;101590.38;5077870;27;45674;-62
2022/10/04 13:28:51;;;;;;;;;12.00;10.25;;;;;24.01;42.26;101589.06;5109565;27;45558;-63
2022/10/04 13:31:59;;;;;;;;;11.67;8.33;;;;;23.78;42.68;101584.66;5093738;27;45628;-64
2022/10/04 13:34:28;;;;;;;;;9.00;9.00;;;;;23.55;43.80;101580.16;5012242;28;45447;-63
2022/10/04 13:37:31;;;;;;;;;11.00;11.00;;;;;23.37;43.77;101552.31;5088957;27;45459;-63
2022/10/04 13:40:42;;;;;;;;;7.33;7.33;;;;;23.45;44.11;101569.81;5085235;27;45650;-64
2022/10/04 13:43:20;;;;;;;;;11.00;10.00;;;;;23.20;44.38;101552.97;5086825;27;46079;-62
2022/10/04 13:46:09;;;;;;;;;12.67;10.67;;;;;23.08;44.14;101556.97;5081582;27;45425;-63
2022/10/04 13:48:49;;;;;;;;;11.00;10.00;;;;;22.96;44.81;101525.34;5092559;27;45456;-63
2022/10/04 13:57:55;;;;;;;;;13.00;11.00;;;;;22.43;45.54;101547.72;5098751;27;45404;-63
2022/10/04 14:00:51;;;;;;;;;11.00;10.33;;;;;22.17;46.39;101554.78;5091429;27;45310;-62
2022/10/04 14:03:34;;;;;;;;;8.67;8.67;;;;;22.09;47.08;101559.50;5104176;27;45497;-63
2022/10/04 14:06:24;;;;;;;;;10.00;8.33;;;;;22.03;47.63;101563.22;5107822;27;45549;-62
2022/10/04 14:09:19;;;;;;;;;11.00;9.00;;;;;21.81;47.57;101549.72;5081300;27;45592;-63
2022/10/04 14:12:20;;;;;;;;;12.67;10.67;;;;;21.50;48.45;101554.28;5058301;27;45420;-64
2022/10/04 14:15:03;;;;;;;;;11.00;7.00;;;;;21.41;49.08;101557.22;5050917;27;45673;-62
2022/10/04 14:18:06;;;;;;;;;11.33;9.67;;;;;21.14;49.86;101560.63;5073685;27;47215;-63
2022/10/04 14:21:33;;;;;;;;;12.00;10.67;;;;;20.90;50.48;101553.31;5101247;27;45523;-63
2022/10/04 14:24:20;;;;;;;;;11.00;9.67;;;;;20.84;50.78;101550.84;4980038;28;46057;-63
2022/10/04 14:27:27;;;;;;;;;12.67;11.33;;;;;20.68;51.30;101537.94;4969158;28;45815;-62
2022/10/04 14:30:06;;;;;;;;;12.67;11.67;;;;;20.41;51.99;101536.84;5068861;27;47293;-63
2022/10/04 14:32:48;;;;;;;;;13.00;13.00;;;;;20.31;52.18;101549.53;5089299;27;45301;-63
2022/10/04 14:35:25;;;;;;;;;11.00;10.00;;;;;20.26;52.57;101546.13;5102497;27;45435;-63
2022/10/04 14:38:11;;;;;;;;;10.67;10.67;;;;;20.24;52.77;101544.38;5095589;27;45825;-63
2022/10/04 14:40:46;;;;;;;;;12.00;8.33;;;;;20.17;52.96;101554.31;5066394;27;47031;-63
2022/10/04 14:43:14;;;;;;;;;9.67;9.33;;;;;20.12;52.80;101540.25;5085057;27;45755;-64
2022/10/04 14:45:59;;;;;;;;;11.00;9.67;;;;;20.05;53.19;101535.97;5086460;27;45426;-64
2022/10/04 14:48:28;;;;;;;;;10.00;9.67;;;;;19.99;53.51;101544.13;5086791;27;45501;-63
2022/10/04 14:51:04;;;;;;;;;10.67;10.00;;;;;19.83;54.02;101533.84;5088212;27;46472;-63
2022/10/04 14:53:48;;;;;;;;;9.33;9.33;;;;;19.67;54.42;101529.75;5082567;27;45273;-64
2022/10/04 14:56:51;;;;;;;;;10.00;10.00;;;;;19.71;54.78;101536.81;5085536;27;45496;-63
2022/10/04 14:59:49;;;;;;;;;9.67;9.33;;;;;19.60;54.36;101542.34;5093558;27;45486;-63
2022/10/04 15:02:30;;;;;;;;;10.67;9.67;;;;;19.55;54.92;101543.34;5048966;27;45594;-63
2022/10/04 15:05:01;;;;;;;;;11.67;9.33;;;;;19.47;54.96;101530.22;5090201;27;45648;-64
2022/10/04 15:07:33;;;;;;;;;9.33;9.33;;;;;19.45;54.96;101537.34;5087055;27;46549;-64
2022/10/04 15:10:05;;;;;;;;;11.00;6.00;;;;;19.45;55.47;101538.22;5094574;27;45641;-63
2022/10/04 15:12:31;;;;;;;;;8.00;7.33;;;;;19.52;55.24;101538.09;5080339;27;45574;-62
2022/10/04 15:14:56;;;;;;;;;7.33;7.33;;;;;19.56;55.03;101531.81;5090236;27;45599;-64
2022/10/04 15:17:29;;;;;;;;;10.00;9.33;;;;;19.52;55.18;101528.34;5085291;27;45331;-63
2022/10/04 15:20:24;;;;;;;;;9.00;9.00;;;;;19.50;55.85;101532.81;5096617;27;46105;-63
2022/10/04 15:23:13;;;;;;;;;9.33;8.33;;;;;19.42;55.13;101526.81;5063118;27;46768;-63
2022/10/04 15:25:52;;;;;;;;;12.33;10.67;;;;;19.35;55.20;101523.41;5078557;27;45596;-63
2022/10/04 15:28:46;;;;;;;;;9.00;9.00;;;;;19.30;55.43;101519.13;5099998;27;45510;-63
2022/10/04 15:31:33;;;;;;;;;11.33;8.67;;;;;19.33;55.59;101522.56;5095954;27;45430;-64
2022/10/04 15:34:45;;;;;;;;;8.00;7.33;;;;;19.36;55.63;101513.66;5088544;27;46241;-65
2022/10/04 15:37:38;;;;;;;;;8.00;8.00;;;;;19.22;55.97;101504.22;5099234;27;45712;-63
2022/10/04 15:40:40;;;;;;;;;6.67;6.00;;;;;19.27;55.88;101504.13;5094094;27;45374;-63
2022/10/04 15:43:24;;;;;;;;;4.67;4.00;;;;;19.32;56.15;101501.38;5107686;27;45493;-64
2022/10/04 15:45:49;;;;;;;;;10.00;7.33;;;;;19.33;56.26;101498.66;5097737;27;45629;-64
2022/10/04 15:48:31;;;;;;;;;11.33;8.00;;;;;19.22;56.03;101487.38;5096083;27;45475;-66
2022/10/04 15:51:02;;;;;;;;;7.00;6.33;;;;;19.12;56.36;101486.72;5095678;27;45467;-65
2022/10/04 15:53:46;;;;;;;;;9.33;6.67;;;;;19.14;56.22;101502.63;5093704;27;45469;-64
2022/10/04 15:56:38;;;;;;;;;9.67;8.00;;;;;19.08;56.68;101501.00;5092181;27;46060;-65
2022/10/04 15:59:06;;;;;;;;;10.33;9.33;;;;;19.11;56.76;101495.59;5091235;27;45387;-63
2022/10/04 16:02:14;;;;;;;;;6.00;5.00;;;;;18.96;56.86;101490.59;5094232;27;45798;-64
2022/10/04 16:04:56;;;;;;;;;5.67;4.67;;;;;19.03;56.78;101503.75;5088063;27;45331;-64
2022/10/04 16:07:58;;;;;;;;;6.33;6.00;;;;;18.94;57.04;101488.00;5097191;27;47518;-65
2022/10/04 16:10:51;;;;;;;;;7.00;7.00;;;;;19.01;56.91;101502.03;5088109;27;45560;-64
2022/10/04 16:13:35;;;;;;;;;5.33;5.33;;;;;19.01;57.04;101504.69;5095173;27;45895;-63
2022/10/04 16:16:15;;;;;;;;;5.33;4.00;;;;;18.95;57.36;101504.78;5096838;27;45350;-64
2022/10/04 16:19:08;;;;;;;;;8.00;5.33;;;;;18.97;57.43;101516.25;5094190;27;46187;-63
2022/10/04 16:21:53;;;;;;;;;8.33;6.67;;;;;18.93;57.99;101511.91;5094928;27;45607;-65
2022/10/04 16:24:19;;;;;;;;;8.33;7.00;;;;;18.92;57.57;101507.53;5107751;27;45373;-65
2022/10/04 16:26:45;;;;;;;;;5.33;5.33;;;;;18.95;57.97;101512.75;5106789;27;45525;-63
2022/10/04 16:29:29;;;;;;;;;7.33;7.33;;;;;18.95;57.86;101515.41;5079401;27;45563;-62
2022/10/04 16:32:20;;;;;;;;;5.67;5.67;;;;;18.89;57.88;101508.47;5094803;27;45836;-63
2022/10/04 16:34:56;;;;;;;;;6.00;5.00;;;;;18.91;57.92;101508.41;5061199;27;45689;-63
2022/10/04 16:38:13;;;;;;;;;6.00;6.00;;;;;18.82;58.47;101499.75;5098589;27;45652;-63
2022/10/04 16:40:50;;;;;;;;;6.00;6.00;;;;;18.88;58.36;101508.47;5028093;28;46326;-62
2022/10/04 16:43:16;;;;;;;;;5.33;5.33;;;;;18.61;58.83;101463.84;5096834;27;45591;-62
2022/10/04 16:46:24;;;;;;;;;9.67;7.33;;;;;18.70;58.95;101494.66;5074361;28;45496;-62
2022/10/04 16:48:57;;;;;;;;;6.67;6.67;;;;;18.71;58.95;101492.88;5077927;27;45643;-64
2022/10/04 16:51:41;;;;;;;;;8.67;6.00;;;;;18.73;59.37;101505.19;5095480;27;46517;-63
2022/10/04 16:54:13;;;;;;;;;6.00;6.00;;;;;18.70;59.03;101504.38;5093924;27;46807;-62
2022/10/04 16:56:56;;;;;;;;;8.33;7.33;;;;;18.68;59.83;101514.16;5094775;27;45607;-63
2022/10/04 16:59:43;;;;;;;;;6.33;4.67;;;;;18.67;59.70;101515.03;5087392;27;45470;-63
2022/10/04 17:02:42;;;;;;;;;7.00;6.00;;;;;18.68;59.72;101523.00;5076630;27;45531;-63
2022/10/04 17:05:14;;;;;;;;;7.67;6.00;;;;;18.73;59.64;101521.13;5093859;27;45856;-63
2022/10/04 17:08:15;;;;;;;;;8.33;7.00;;;;;18.72;60.05;101532.66;5083676;27;45733;-64
2022/10/04 17:11:34;;;;;;;;;9.67;8.67;;;;;18.74;59.86;101532.59;5088906;27;45828;-64
2022/10/04 17:14:31;;;;;;;;;12.33;9.67;;;;;18.75;59.50;101552.94;5028786;28;45939;-63
2022/10/04 17:17:23;;;;;;;;;8.67;6.67;;;;;18.63;60.04;101541.66;5026423;28;45544;-68
2022/10/04 17:20:00;;;;;;;;;9.00;6.00;;;;;18.70;59.76;101547.72;5068509;27;45532;-63
2022/10/04 17:22:47;;;;;;;;;7.33;7.00;;;;;18.70;59.39;101562.75;5066388;27;45583;-64
2022/10/04 17:25:35;;;;;;;;;5.67;5.67;;;;;18.68;59.87;101567.22;5080868;27;45456;-61
2022/10/04 17:28:24;;;;;;;;;8.67;6.33;;;;;18.67;59.50;101565.47;5086702;27;45554;-63
2022/10/04 17:31:10;;;;;;;;;7.00;6.00;;;;;18.63;59.48;101572.63;5073250;27;45405;-62
2022/10/04 17:34:13;;;;;;;;;8.33;5.67;;;;;18.60;59.90;101573.56;5098440;27;45557;-62
2022/10/04 17:36:43;;;;;;;;;6.00;4.00;;;;;18.61;59.68;101577.94;5073495;27;45903;-62
2022/10/04 17:39:34;;;;;;;;;5.00;5.00;;;;;18.60;59.91;101572.66;5059964;27;46122;-63
2022/10/04 17:42:53;;;;;;;;;8.00;5.67;;;;;18.54;60.40;101571.00;5085621;27;45862;-62
2022/10/04 17:45:25;;;;;;;;;5.33;5.33;;;;;18.54;60.38;101565.69;5007931;28;45594;-63
2022/10/04 17:56:42;;;;;;;;;7.33;7.00;;;;;18.49;60.47;101564.91;5092941;27;45425;-63
2022/10/04 17:59:15;;;;;;;;;7.00;6.00;;;;;18.46;60.41;101567.63;5068725;27;47894;-63
2022/10/04 18:01:45;;;;;;;;;8.33;8.33;;;;;18.45;60.66;101571.16;5087128;27;45338;-63
2022/10/04 18:04:22;;;;;;;;;8.67;8.00;;;;;18.41;60.76;101564.13;5068251;27;45547;-63
2022/10/04 18:06:57;;;;;;;;;6.00;6.00;;;;;18.44;60.81;101564.97;5072237;27;45529;-64
2022/10/04 18:09:44;;;;;;;;;11.67;8.67;;;;;18.40;60.83;101559.75;5102460;27;46690;-62
2022/10/04 18:12:36;;;;;;;;;38.33;34.00;;;;;18.32;60.68;101549.28;5084690;27;45571;-62
2022/10/04 18:15:27;;;;;;;;;55.75;40.50;;;;;18.33;61.26;101553.66;5076113;27;46030;-63
2022/10/04 18:18:08;;;;;;;;;39.67;31.33;;;;;18.36;61.08;101555.38;5084024;27;45550;-63
2022/10/04 18:20:43;;;;;;;;;17.00;17.00;;;;;18.33;61.25;101550.16;5092028;27;46179;-62
2022/10/04 18:23:29;;;;;;;;;12.00;12.00;;;;;18.30;60.87;101558.16;5069184;27;45865;-63
2022/10/04 18:26:16;;;;;;;;;10.33;10.33;;;;;18.25;61.35;101560.00;5106678;27;45550;-63
2022/10/04 18:28:42;;;;;;;;;9.67;8.33;;;;;18.17;61.55;101549.53;5088893;27;45549;-63
2022/10/04 18:31:28;;;;;;;;;12.67;9.33;;;;;18.19;61.60;101553.03;5095028;27;46094;-63
2022/10/04 18:33:56;;;;;;;;;13.33;12.00;;;;;18.15;61.69;101560.19;5084608;27;45457;-63
2022/10/04 18:36:44;;;;;;;;;10.00;9.33;;;;;18.13;61.88;101554.03;5091454;27;46036;-63
2022/10/04 18:39:13;;;;;;;;;10.33;10.33;;;;;18.10;61.88;101556.69;5069916;27;45568;-64
2022/10/04 18:41:52;;;;;;;;;10.67;10.67;;;;;18.13;61.66;101554.03;5091437;27;45575;-63
2022/10/04 18:44:22;;;;;;;;;16.00;9.33;;;;;18.11;61.70;101545.22;5057418;27;45842;-63
2022/10/04 18:46:55;;;;;;;;;11.00;10.00;;;;;18.12;61.60;101546.94;5072436;27;45926;-62
2022/10/04 18:49:25;;;;;;;;;7.33;7.33;;;;;18.11;61.47;101554.94;5059569;27;45576;-62
2022/10/04 18:52:09;;;;;;;;;10.33;10.33;;;;;18.13;61.67;101551.38;5089885;27;46241;-63
2022/10/04 18:54:39;;;;;;;;;7.33;6.00;;;;;18.14;61.30;101552.22;5091690;27;45896;-63
2022/10/04 18:57:32;;;;;;;;;11.00;10.00;;;;;18.10;61.54;101555.81;5075872;27;45663;-63
2022/10/04 19:03:39;;;;;;;;;8.33;7.00;;;;;18.04;61.49;101561.25;5083880;27;45398;-62
2022/10/04 19:06:28;;;;;;;;;10.00;8.67;;;;;18.02;61.60;101561.25;5066109;27;45797;-63
2022/10/04 19:09:21;;;;;;;;;10.67;6.67;;;;;18.01;61.65;101567.47;5089285;27;45521;-63
2022/10/04 19:11:50;;;;;;;;;9.33;9.33;;;;;18.01;61.43;101556.88;5092046;27;45407;-64
2022/10/04 19:15:00;;;;;;;;;9.33;9.33;;;;;18.00;61.56;101565.69;5089051;27;45634;-64
2022/10/04 19:17:55;;;;;;;;;10.33;10.33;;;;;18.02;61.34;101566.56;5057499;27;45591;-63
2022/10/04 19:20:32;;;;;;;;;9.33;8.33;;;;;18.03;61.51;101565.66;5065868;27;45543;-64
2022/10/04 19:23:26;;;;;;;;;12.00;9.67;;;;;18.04;61.69;101577.16;5106716;27;45433;-62
2022/10/04 19:26:05;;;;;;;;;10.67;8.33;;;;;17.97;61.42;101574.59;5085492;27;45909;-64
2022/10/04 19:28:34;;;;;;;;;12.67;9.00;;;;;18.03;61.62;101584.19;5090519;27;45672;-62
2022/10/04 19:31:25;;;;;;;;;12.67;9.67;;;;;17.80;61.73;101550.09;5092936;27;45515;-64
2022/10/04 19:34:12;;;;;;;;;9.33;8.33;;;;;18.01;61.49;101589.56;5080890;27;45403;-62
2022/10/04 19:36:56;;;;;;;;;12.00;10.00;;;;;18.06;61.52;101584.19;5091625;27;46005;-64
2022/10/04 19:39:27;;;;;;;;;10.33;10.33;;;;;18.08;61.34;101585.03;5084975;27;46691;-63
2022/10/04 19:42:01;;;;;;;;;8.33;7.67;;;;;17.99;61.48;101574.56;5090509;27;45537;-63
2022/10/04 19:44:45;;;;;;;;;15.33;12.33;;;;;18.05;61.56;101585.06;5090664;27;45531;-62
2022/10/04 19:47:27;;;;;;;;;11.33;8.33;;;;;18.04;61.56;101583.31;5095984;27;45397;-63
2022/10/04 19:50:00;;;;;;;;;12.33;9.00;;;;;18.07;61.42;101596.53;5070803;27;45528;-62
2022/10/04 19:52:39;;;;;;;;;13.00;12.33;;;;;18.08;61.49;101592.09;5073995;27;45904;-63
2022/10/04 19:55:27;;;;;;;;;9.00;7.00;;;;;18.08;61.56;101597.38;5078687;27;45622;-63
2022/10/04 19:58:26;;;;;;;;;11.00;11.00;;;;;18.02;61.90;101588.63;5083127;27;46451;-65
2022/10/04 20:01:07;;;;;;;;;11.67;10.00;;;;;18.13;61.79;101599.09;5067152;27;45440;-65
2022/10/04 20:03:33;;;;;;;;;10.33;9.33;;;;;18.02;61.63;101579.81;5065110;27;45596;-62
2022/10/04 20:05:58;;;;;;;;;13.67;9.33;;;;;18.17;61.75;101597.25;5088089;27;45493;-64
2022/10/04 20:08:47;;;;;;;;;12.33;11.67;;;;;18.12;61.86;101592.00;5083699;27;45889;-63
2022/10/04 20:11:28;;;;;;;;;12.33;11.33;;;;;18.18;61.78;101591.94;5087728;27;45859;-63
2022/10/04 20:14:06;;;;;;;;;13.00;10.67;;;;;18.21;61.48;101591.88;5084240;27;45726;-62
2022/10/04 20:16:54;;;;;;;;;14.00;12.33;;;;;18.25;61.47;101599.78;5082979;27;45687;-63
2022/10/04 20:19:36;;;;;;;;;22.33;15.00;;;;;18.18;61.82;101602.53;5089797;27;46374;-63
2022/10/04 20:22:08;;;;;;;;;17.67;15.33;;;;;18.21;61.69;101598.97;5089345;27;45449;-63
2022/10/04 20:24:38;;;;;;;;;16.67;14.33;;;;;18.24;62.31;101601.56;5079559;27;45493;-62
2022/10/04 20:27:32;;;;;;;;;15.67;13.33;;;;;18.22;61.90;101598.94;5073594;27;45551;-62
2022/10/04 20:30:03;;;;;;;;;14.67;14.67;;;;;18.19;61.79;101591.03;5089572;27;45815;-62
2022/10/04 20:32:35;;;;;;;;;15.00;15.00;;;;;18.23;62.24;101600.69;5089004;27;45411;-63
2022/10/04 20:35:09;;;;;;;;;14.67;13.67;;;;;18.21;62.16;101593.66;5080622;27;46000;-62
2022/10/04 20:37:43;;;;;;;;;12.67;11.67;;;;;18.25;62.32;101594.47;5088400;27;45855;-63
2022/10/04 20:40:29;;;;;;;;;15.67;14.67;;;;;18.25;62.22;101587.41;5087469;27;45330;-61
2022/10/04 20:43:13;;;;;;;;;16.67;12.33;;;;;18.20;62.83;101583.97;5084029;27;45527;-63
2022/10/04 20:45:50;;;;;;;;;12.67;12.67;;;;;18.09;62.58;101575.31;5083389;27;45549;-63
2022/10/04 20:48:26;;;;;;;;;13.67;9.67;;;;;18.15;62.66;101581.38;5088764;27;45678;-64
2022/10/04 20:50:53;;;;;;;;;10.33;10.33;;;;;18.12;62.57;101577.88;5089015;27;46664;-64
2022/10/04 20:53:28;;;;;;;;;11.33;10.67;;;;;18.20;62.51;101584.84;5088007;27;45607;-62